Time;durP1;ratioP1;P1;durP2;ratioP2;P2;SDS_P1;SDS_P2;PMS_P1;PMS_P2;Temp;Humidity;BMP_temperature;BMP_pressure;BME280_temperature;BME280_humidity;BME280_pressure;Samples;Min_cycle;Max_cycle;Signal;HPM_P1;HPM_P2
2021/06/23 00:01:33;;;;;;;0.40;0.30;;;18.40;99.90;;;;;;4969866;28;20427;-75
2021/06/23 00:03:59;;;;;;;0.40;0.30;;;18.50;99.90;;;;;;4969698;28;20404;-74
2021/06/23 00:06:24;;;;;;;0.40;0.30;;;18.40;99.90;;;;;;4971443;28;20393;-74
2021/06/23 00:08:50;;;;;;;0.40;0.30;;;18.50;99.90;;;;;;4972393;28;20400;-74
2021/06/23 00:11:16;;;;;;;0.40;0.30;;;18.30;99.90;;;;;;4974809;28;20399;-74
2021/06/23 00:13:42;;;;;;;0.40;0.30;;;18.20;99.90;;;;;;4974220;28;20911;-74
2021/06/23 00:16:08;;;;;;;0.40;0.30;;;18.20;99.90;;;;;;4973503;28;20392;-74
2021/06/23 00:18:35;;;;;;;0.80;0.80;;;18.20;99.90;;;;;;4974264;28;20868;-74
2021/06/23 00:21:01;;;;;;;0.40;0.20;;;18.30;99.90;;;;;;4973624;28;20416;-74
2021/06/23 00:23:26;;;;;;;0.40;0.30;;;18.30;99.90;;;;;;4974375;28;20407;-74
2021/06/23 00:25:52;;;;;;;0.40;0.20;;;18.30;99.90;;;;;;4973193;28;20903;-74
2021/06/23 00:28:18;;;;;;;0.40;0.20;;;18.40;99.90;;;;;;4974237;28;20400;-74
2021/06/23 00:30:44;;;;;;;0.40;0.20;;;18.40;99.90;;;;;;4974456;28;20447;-74
2021/06/23 00:33:16;;;;;;;0.40;0.30;;;18.40;99.90;;;;;;4973090;28;20463;-74
2021/06/23 00:35:42;;;;;;;0.40;0.30;;;18.30;99.90;;;;;;4973923;28;20418;-74
2021/06/23 00:38:08;;;;;;;0.40;0.20;;;18.20;99.90;;;;;;4973585;28;20388;-74
2021/06/23 00:40:34;;;;;;;0.40;0.30;;;18.20;99.90;;;;;;4956441;28;20918;-73
2021/06/23 00:43:00;;;;;;;0.40;0.20;;;18.10;99.90;;;;;;4973233;28;20967;-74
2021/06/23 00:45:26;;;;;;;0.40;0.30;;;18.20;99.90;;;;;;4973368;28;20476;-74
2021/06/23 00:47:54;;;;;;;0.40;0.30;;;18.20;99.90;;;;;;4973347;28;20380;-74
2021/06/23 00:50:20;;;;;;;0.40;0.20;;;18.20;99.90;;;;;;4973771;28;20897;-74
2021/06/23 00:52:47;;;;;;;0.40;0.20;;;18.10;99.90;;;;;;4973813;28;20479;-74
2021/06/23 00:55:20;;;;;;;0.40;0.20;;;18.20;99.90;;;;;;4973935;28;20446;-75
2021/06/23 00:57:51;;;;;;;0.40;0.20;;;18.10;99.90;;;;;;4974252;28;20388;-76
2021/06/23 01:00:20;;;;;;;0.40;0.20;;;18.20;99.90;;;;;;4973678;28;20504;-73
2021/06/23 01:02:47;;;;;;;0.40;0.20;;;18.20;99.90;;;;;;4974111;28;20396;-74
2021/06/23 01:05:14;;;;;;;0.40;0.20;;;18.10;99.90;;;;;;4974328;28;20724;-74
2021/06/23 01:07:41;;;;;;;0.40;0.30;;;18.00;99.90;;;;;;4973813;28;20487;-74
2021/06/23 01:10:07;;;;;;;0.40;0.30;;;18.00;99.90;;;;;;4972683;28;20681;-74
2021/06/23 01:13:14;;;;;;;0.40;0.30;;;18.00;99.90;;;;;;4973369;28;20435;-74
2021/06/23 01:15:40;;;;;;;0.40;0.30;;;18.00;99.90;;;;;;4973380;28;20503;-74
2021/06/23 01:18:09;;;;;;;0.40;0.20;;;18.10;99.90;;;;;;4973067;28;20495;-74
2021/06/23 01:20:43;;;;;;;0.40;0.30;;;18.10;99.90;;;;;;4972968;28;20500;-74
2021/06/23 01:23:10;;;;;;;0.40;0.20;;;18.00;99.90;;;;;;4973070;28;20404;-74
2021/06/23 01:25:35;;;;;;;0.40;0.20;;;18.00;99.90;;;;;;4973554;28;20467;-75
2021/06/23 01:28:01;;;;;;;0.40;0.20;;;17.90;99.90;;;;;;4972691;28;20488;-74
2021/06/23 01:30:27;;;;;;;0.40;0.20;;;18.00;99.90;;;;;;4973289;28;20392;-74
2021/06/23 01:32:53;;;;;;;0.40;0.30;;;17.90;99.90;;;;;;4972801;28;20494;-73
2021/06/23 01:35:19;;;;;;;0.40;0.30;;;17.90;99.90;;;;;;4973184;28;20471;-74
2021/06/23 01:37:45;;;;;;;0.40;0.30;;;17.80;99.90;;;;;;4973576;28;20480;-74
2021/06/23 01:40:11;;;;;;;0.40;0.30;;;17.90;99.90;;;;;;4972645;28;20396;-74
2021/06/23 01:42:37;;;;;;;0.40;0.20;;;17.80;99.90;;;;;;4972841;28;20892;-74
2021/06/23 01:45:04;;;;;;;0.40;0.30;;;17.70;99.90;;;;;;4955366;28;20406;-73
2021/06/23 01:47:29;;;;;;;0.40;0.30;;;17.70;99.90;;;;;;4973067;28;20407;-73
2021/06/23 01:49:55;;;;;;;0.40;0.20;;;17.80;99.90;;;;;;4972649;28;20403;-74
2021/06/23 01:52:21;;;;;;;0.40;0.30;;;17.80;99.90;;;;;;4972998;28;20400;-73
2021/06/23 01:54:47;;;;;;;0.40;0.20;;;17.70;99.90;;;;;;4956135;28;20400;-74
2021/06/23 01:57:13;;;;;;;0.40;0.20;;;17.70;99.90;;;;;;4972643;28;20929;-73
2021/06/23 01:59:40;;;;;;;0.40;0.30;;;17.60;99.90;;;;;;4972911;28;20396;-73
2021/06/23 02:02:15;;;;;;;0.40;0.20;;;17.60;99.90;;;;;;4972155;28;20420;-73
2021/06/23 02:04:49;;;;;;;0.40;0.20;;;17.40;99.90;;;;;;4972924;28;20522;-73
2021/06/23 02:07:29;;;;;;;0.40;0.20;;;17.40;99.90;;;;;;4972293;28;20473;-73
2021/06/23 02:10:23;;;;;;;0.40;0.30;;;17.50;99.90;;;;;;4972507;28;20381;-73
2021/06/23 02:13:13;;;;;;;0.40;0.30;;;17.60;99.90;;;;;;4983139;28;20403;-73
2021/06/23 02:15:40;;;;;;;0.40;0.30;;;17.50;99.90;;;;;;4977493;28;20548;-73
2021/06/23 02:18:07;;;;;;;0.40;0.20;;;17.50;99.90;;;;;;4971731;28;20399;-73
2021/06/23 02:20:34;;;;;;;0.40;0.20;;;17.50;99.90;;;;;;4972651;28;20412;-73
2021/06/23 02:23:07;;;;;;;0.40;0.30;;;17.40;99.90;;;;;;4972102;28;20458;-74
2021/06/23 02:25:33;;;;;;;0.40;0.20;;;17.30;99.90;;;;;;4972998;28;20415;-73
2021/06/23 02:27:59;;;;;;;0.40;0.20;;;17.30;99.90;;;;;;4972224;28;20471;-73
2021/06/23 02:30:25;;;;;;;0.40;0.30;;;17.20;99.90;;;;;;4972016;28;20420;-74
2021/06/23 02:32:54;;;;;;;0.40;0.30;;;17.20;99.90;;;;;;4972355;28;20404;-73
2021/06/23 02:35:24;;;;;;;0.40;0.30;;;17.20;99.90;;;;;;4971927;28;20400;-73
2021/06/23 02:37:50;;;;;;;0.40;0.20;;;17.20;99.90;;;;;;4972406;28;20401;-73
2021/06/23 02:40:17;;;;;;;0.40;0.20;;;17.10;99.90;;;;;;4971847;28;20446;-73
2021/06/23 02:42:43;;;;;;;0.40;0.30;;;17.10;99.90;;;;;;4972249;28;20400;-74
2021/06/23 02:45:09;;;;;;;0.40;0.30;;;17.10;99.90;;;;;;4971566;28;20407;-73
2021/06/23 02:47:35;;;;;;;0.40;0.20;;;17.20;99.90;;;;;;4972062;28;20412;-73
2021/06/23 02:50:01;;;;;;;0.40;0.20;;;17.20;99.90;;;;;;4971879;28;20385;-73
2021/06/23 02:52:28;;;;;;;0.40;0.20;;;17.10;99.90;;;;;;4972352;28;20396;-73
2021/06/23 02:54:55;;;;;;;0.40;0.30;;;17.10;99.90;;;;;;4971822;28;20389;-74
2021/06/23 02:57:21;;;;;;;0.40;0.20;;;17.00;99.90;;;;;;4972175;28;20499;-73
2021/06/23 02:59:47;;;;;;;0.40;0.30;;;16.90;99.90;;;;;;4972248;28;20512;-73
2021/06/23 03:02:13;;;;;;;0.40;0.30;;;17.00;99.90;;;;;;4971553;28;20726;-73
2021/06/23 03:04:47;;;;;;;0.40;0.28;;;17.00;99.90;;;;;;4971816;28;20867;-73
2021/06/23 03:07:14;;;;;;;0.40;0.30;;;17.00;99.90;;;;;;4970761;28;20472;-74
2021/06/23 03:09:41;;;;;;;0.40;0.20;;;16.80;99.90;;;;;;4971838;28;20799;-74
2021/06/23 03:12:07;;;;;;;0.40;0.30;;;16.70;99.90;;;;;;4979830;28;20409;-73
2021/06/23 03:14:32;;;;;;;0.40;0.30;;;16.80;99.90;;;;;;4988591;28;20419;-73
2021/06/23 03:16:58;;;;;;;0.40;0.20;;;16.90;99.90;;;;;;4971195;28;20404;-73
2021/06/23 03:19:25;;;;;;;0.40;0.30;;;16.80;99.90;;;;;;4972061;28;20386;-73
2021/06/23 03:21:50;;;;;;;0.40;0.30;;;16.90;99.90;;;;;;4971663;28;20776;-73
2021/06/23 03:24:18;;;;;;;0.40;0.30;;;16.80;99.90;;;;;;4969843;28;20428;-73
2021/06/23 03:26:44;;;;;;;0.40;0.30;;;16.90;99.90;;;;;;4971628;28;20749;-73
2021/06/23 03:29:27;;;;;;;0.40;0.30;;;16.70;99.90;;;;;;4971092;28;20400;-73
2021/06/23 03:31:52;;;;;;;0.40;0.30;;;16.60;99.90;;;;;;4971789;28;20408;-73
2021/06/23 03:34:18;;;;;;;0.40;0.30;;;16.60;99.90;;;;;;4970602;28;20427;-73
2021/06/23 03:36:44;;;;;;;0.40;0.30;;;16.60;99.90;;;;;;4971402;28;20939;-73
2021/06/23 03:39:10;;;;;;;0.40;0.20;;;16.50;99.90;;;;;;4970924;28;20400;-73
2021/06/23 03:41:36;;;;;;;0.40;0.30;;;16.60;99.90;;;;;;4971476;28;20812;-73
2021/06/23 03:44:01;;;;;;;0.40;0.20;;;16.40;99.90;;;;;;4974949;28;20490;-73
2021/06/23 03:46:27;;;;;;;0.40;0.30;;;16.40;99.90;;;;;;4975101;28;20401;-73
2021/06/23 03:48:54;;;;;;;0.40;0.20;;;16.50;99.90;;;;;;4975294;28;20384;-73
2021/06/23 03:51:20;;;;;;;0.40;0.30;;;16.50;99.90;;;;;;4974566;28;20877;-73
2021/06/23 03:53:45;;;;;;;0.40;0.30;;;16.50;99.90;;;;;;4975365;28;20467;-73
2021/06/23 03:56:11;;;;;;;0.40;0.20;;;16.60;99.90;;;;;;4974560;28;20387;-73
2021/06/23 03:58:37;;;;;;;0.40;0.30;;;16.60;99.90;;;;;;4975335;28;20422;-73
2021/06/23 04:01:02;;;;;;;0.40;0.30;;;16.60;99.90;;;;;;4974745;28;20511;-73
2021/06/23 04:03:28;;;;;;;0.40;0.20;;;16.60;99.90;;;;;;4975598;28;20428;-73
2021/06/23 04:05:53;;;;;;;0.40;0.20;;;16.50;99.90;;;;;;4976122;28;20389;-73
2021/06/23 04:08:21;;;;;;;0.40;0.30;;;16.50;99.90;;;;;;4974672;28;20793;-73
2021/06/23 04:10:47;;;;;;;0.40;0.20;;;16.50;99.90;;;;;;4975548;28;20498;-73
2021/06/23 04:13:12;;;;;;;0.40;0.30;;;16.40;99.90;;;;;;4992949;28;20852;-73
2021/06/23 04:15:38;;;;;;;0.40;0.30;;;16.40;99.90;;;;;;4976605;28;20423;-73
2021/06/23 04:18:04;;;;;;;0.40;0.30;;;16.40;99.90;;;;;;4974706;28;20408;-73
2021/06/23 04:20:29;;;;;;;0.40;0.30;;;16.40;99.90;;;;;;4975238;28;20388;-73
2021/06/23 04:22:55;;;;;;;0.40;0.30;;;16.40;99.90;;;;;;4975461;28;20400;-73
2021/06/23 04:25:20;;;;;;;0.40;0.30;;;16.30;99.90;;;;;;4975036;28;20780;-73
2021/06/23 04:27:46;;;;;;;0.40;0.30;;;16.30;99.90;;;;;;4975055;28;20891;-73
2021/06/23 04:30:12;;;;;;;0.40;0.30;;;16.30;99.90;;;;;;4974622;28;20388;-73
2021/06/23 04:32:38;;;;;;;0.40;0.30;;;16.40;99.90;;;;;;4974778;28;20434;-72
2021/06/23 04:35:08;;;;;;;0.40;0.20;;;16.30;99.90;;;;;;4974148;28;20927;-73
2021/06/23 04:37:37;;;;;;;0.40;0.30;;;16.20;99.90;;;;;;4982843;28;20384;-72
2021/06/23 04:40:05;;;;;;;0.40;0.20;;;16.30;99.90;;;;;;4976199;28;20411;-76
2021/06/23 04:42:30;;;;;;;0.40;0.20;;;16.30;99.90;;;;;;4974020;28;20888;-72
2021/06/23 04:44:56;;;;;;;0.40;0.20;;;16.30;99.90;;;;;;4974320;28;20388;-73
2021/06/23 04:47:22;;;;;;;0.40;0.20;;;16.50;99.90;;;;;;4973429;28;20927;-73
2021/06/23 04:49:47;;;;;;;0.40;0.20;;;16.40;99.90;;;;;;4974189;28;20415;-72
2021/06/23 04:52:13;;;;;;;0.40;0.30;;;16.40;99.90;;;;;;4973216;28;20415;-72
2021/06/23 04:54:39;;;;;;;0.40;0.20;;;16.50;99.90;;;;;;4974009;28;20483;-73
2021/06/23 04:57:05;;;;;;;0.40;0.20;;;16.60;99.90;;;;;;4973525;28;20407;-76
2021/06/23 04:59:31;;;;;;;0.40;0.30;;;16.60;99.90;;;;;;4974605;28;20389;-72
2021/06/23 05:01:57;;;;;;;0.40;0.30;;;16.60;99.90;;;;;;4974304;28;20904;-72
2021/06/23 05:04:23;;;;;;;0.40;0.30;;;16.70;99.90;;;;;;4975195;28;20398;-74
2021/06/23 05:06:49;;;;;;;0.40;0.30;;;16.70;99.90;;;;;;4975152;28;20415;-73
2021/06/23 05:09:14;;;;;;;0.40;0.20;;;16.80;99.90;;;;;;4973198;28;20388;-73
2021/06/23 05:11:40;;;;;;;0.40;0.30;;;16.90;99.90;;;;;;4979232;28;20409;-74
2021/06/23 05:14:07;;;;;;;0.40;0.30;;;16.90;99.90;;;;;;4989744;28;20904;-73
2021/06/23 05:16:35;;;;;;;0.40;0.20;;;17.10;99.90;;;;;;4974030;28;20474;-73
2021/06/23 05:19:01;;;;;;;0.40;0.20;;;17.10;99.90;;;;;;4973797;28;20392;-74
2021/06/23 05:21:27;;;;;;;0.40;0.30;;;17.10;99.90;;;;;;4972682;28;20416;-73
2021/06/23 05:23:52;;;;;;;0.40;0.30;;;17.10;99.90;;;;;;4981598;28;20391;-73
2021/06/23 05:26:18;;;;;;;0.40;0.30;;;17.20;99.90;;;;;;4976702;28;20398;-73
2021/06/23 05:28:44;;;;;;;0.40;0.20;;;17.20;99.90;;;;;;4971262;28;20403;-73
2021/06/23 05:31:09;;;;;;;0.40;0.30;;;17.20;99.90;;;;;;4972435;28;20392;-72
2021/06/23 05:33:35;;;;;;;0.40;0.30;;;17.20;99.90;;;;;;4973607;28;20400;-74
2021/06/23 05:36:01;;;;;;;0.40;0.20;;;17.30;99.90;;;;;;4973420;28;20419;-74
2021/06/23 05:38:26;;;;;;;0.40;0.30;;;17.40;99.90;;;;;;4972051;28;21141;-74
2021/06/23 05:40:52;;;;;;;0.40;0.30;;;17.50;99.90;;;;;;4973842;28;20420;-77
2021/06/23 05:43:18;;;;;;;0.40;0.20;;;17.50;99.90;;;;;;4972676;28;20738;-77
2021/06/23 05:45:43;;;;;;;0.40;0.20;;;17.50;99.90;;;;;;4955980;28;20412;-78
2021/06/23 05:48:09;;;;;;;0.40;0.30;;;17.60;99.90;;;;;;4971701;28;20439;-78
2021/06/23 05:50:35;;;;;;;0.40;0.30;;;17.60;99.90;;;;;;4955807;28;20419;-78
2021/06/23 05:53:01;;;;;;;0.40;0.30;;;17.70;99.90;;;;;;4972118;28;20392;-78
2021/06/23 05:55:27;;;;;;;0.40;0.20;;;17.60;99.90;;;;;;4971977;28;20768;-78
2021/06/23 05:57:54;;;;;;;0.40;0.20;;;17.60;99.90;;;;;;4972674;28;20438;-78
2021/06/23 06:00:22;;;;;;;0.40;0.22;;;17.70;99.90;;;;;;4972242;28;20392;-79
2021/06/23 06:02:47;;;;;;;0.40;0.30;;;17.90;99.90;;;;;;4972399;28;20416;-79
2021/06/23 06:05:14;;;;;;;0.40;0.30;;;18.00;99.90;;;;;;4971126;28;21011;-79
2021/06/23 06:07:40;;;;;;;0.40;0.20;;;18.20;99.90;;;;;;4972777;28;20471;-79
2021/06/23 06:10:06;;;;;;;0.40;0.25;;;18.10;99.90;;;;;;4972287;28;20428;-79
2021/06/23 06:12:32;;;;;;;0.40;0.20;;;18.20;99.90;;;;;;4979857;28;20408;-79
2021/06/23 06:14:57;;;;;;;0.40;0.40;;;18.30;99.90;;;;;;4972753;28;20419;-79
2021/06/23 06:17:23;;;;;;;0.40;0.20;;;18.40;99.90;;;;;;4971892;28;20484;-78
2021/06/23 06:19:49;;;;;;;0.40;0.20;;;18.50;99.90;;;;;;4973000;28;20408;-78
2021/06/23 06:22:15;;;;;;;0.40;0.20;;;18.60;99.90;;;;;;4972202;28;20419;-77
2021/06/23 06:24:40;;;;;;;0.40;0.30;;;18.50;99.90;;;;;;4972433;28;20500;-76
2021/06/23 06:27:06;;;;;;;0.40;0.20;;;18.50;99.90;;;;;;4971654;28;20396;-82
2021/06/23 06:29:32;;;;;;;0.40;0.20;;;18.50;99.90;;;;;;4971722;28;20455;-77
2021/06/23 06:31:58;;;;;;;0.60;0.50;;;18.50;99.90;;;;;;4972056;28;20408;-78
2021/06/23 06:34:24;;;;;;;0.40;0.30;;;18.60;99.90;;;;;;4970851;28;20483;-78
2021/06/23 06:36:49;;;;;;;0.40;0.20;;;18.70;99.90;;;;;;4971405;28;20475;-75
2021/06/23 06:39:15;;;;;;;0.40;0.30;;;18.80;99.90;;;;;;4971473;28;20732;-76
2021/06/23 06:41:41;;;;;;;0.40;0.20;;;18.80;99.90;;;;;;4954529;28;20471;-77
2021/06/23 06:44:06;;;;;;;0.40;0.20;;;18.80;99.90;;;;;;4971440;28;20440;-79
2021/06/23 06:46:32;;;;;;;0.40;0.30;;;18.70;99.90;;;;;;4971610;28;20400;-77
2021/06/23 06:48:58;;;;;;;0.40;0.30;;;18.80;99.90;;;;;;4971550;28;20439;-77
2021/06/23 06:51:23;;;;;;;0.40;0.20;;;18.90;99.90;;;;;;4971478;28;20952;-76
2021/06/23 06:53:49;;;;;;;0.40;0.20;;;19.00;99.90;;;;;;4972232;28;20451;-77
2021/06/23 06:56:16;;;;;;;0.40;0.20;;;19.20;99.90;;;;;;4971413;28;20818;-78
2021/06/23 06:58:41;;;;;;;0.40;0.30;;;19.10;99.90;;;;;;4971999;28;20884;-77
2021/06/23 07:01:07;;;;;;;0.40;0.20;;;19.20;99.90;;;;;;4972178;28;20504;-78
2021/06/23 07:03:33;;;;;;;0.40;0.30;;;19.20;99.90;;;;;;4971301;28;20440;-79
2021/06/23 07:05:58;;;;;;;0.40;0.20;;;19.30;99.90;;;;;;4971980;28;20399;-78
2021/06/23 07:08:24;;;;;;;0.40;0.20;;;19.40;99.90;;;;;;4971413;28;20399;-78
2021/06/23 07:10:50;;;;;;;0.40;0.30;;;19.40;99.90;;;;;;4971489;28;20412;-79
2021/06/23 07:13:15;;;;;;;0.40;0.20;;;19.50;99.90;;;;;;4989423;28;20402;-78
2021/06/23 07:15:41;;;;;;;0.40;0.30;;;19.40;99.90;;;;;;4975691;28;20412;-76
2021/06/23 07:18:07;;;;;;;0.40;0.30;;;19.30;99.90;;;;;;4977194;28;20481;-77
2021/06/23 07:20:32;;;;;;;0.40;0.30;;;19.40;99.90;;;;;;4977738;28;20430;-78
2021/06/23 07:22:58;;;;;;;0.40;0.20;;;19.40;99.90;;;;;;4978256;28;20495;-78
2021/06/23 07:25:24;;;;;;;0.40;0.30;;;19.40;99.90;;;;;;4977703;28;20471;-78
2021/06/23 07:27:50;;;;;;;0.40;0.20;;;19.50;99.90;;;;;;4978422;28;20387;-77
2021/06/23 07:30:16;;;;;;;0.40;0.30;;;19.50;99.90;;;;;;4977769;28;20911;-77
2021/06/23 07:32:51;;;;;;;0.40;0.30;;;19.70;99.90;;;;;;4978424;28;20419;-75
2021/06/23 07:38:06;;;;;;;0.40;0.20;;;19.60;99.90;;;;;;4963918;28;20390;-75
2021/06/23 07:40:43;;;;;;;0.40;0.30;;;19.70;99.90;;;;;;4977756;28;20380;-74
2021/06/23 07:43:12;;;;;;;0.40;0.30;;;19.70;99.90;;;;;;4978108;28;20481;-75
2021/06/23 07:45:43;;;;;;;0.40;0.30;;;19.80;99.90;;;;;;4977810;28;20849;-76
2021/06/23 07:48:09;;;;;;;0.40;0.22;;;19.80;99.90;;;;;;4961777;28;20444;-76
2021/06/23 07:50:40;;;;;;;0.40;0.30;;;19.80;99.90;;;;;;4977053;28;21037;-76
2021/06/23 07:53:15;;;;;;;0.40;0.30;;;19.80;99.90;;;;;;4978393;28;20395;-75
2021/06/23 07:55:44;;;;;;;0.40;0.30;;;19.70;99.90;;;;;;4978415;28;20983;-76
2021/06/23 08:11:39;;;;;;;0.40;0.20;;;19.60;99.90;;;;;;4980992;28;20402;-74
2021/06/23 08:14:06;;;;;;;0.40;0.30;;;19.70;99.90;;;;;;4992044;28;20749;-76
2021/06/23 08:16:36;;;;;;;0.40;0.20;;;19.80;99.90;;;;;;4977306;28;20722;-76
2021/06/23 08:19:03;;;;;;;0.40;0.20;;;19.90;99.90;;;;;;4977615;28;20396;-76
2021/06/23 08:21:29;;;;;;;0.50;0.40;;;19.90;99.90;;;;;;4976889;28;20456;-75
2021/06/23 08:23:54;;;;;;;0.40;0.30;;;19.90;99.90;;;;;;4978120;28;20419;-76
2021/06/23 08:26:20;;;;;;;0.40;0.20;;;20.30;99.90;;;;;;4977089;28;20400;-76
2021/06/23 08:28:46;;;;;;;0.40;0.30;;;20.40;99.90;;;;;;4975123;28;20885;-75
2021/06/23 08:31:13;;;;;;;0.40;0.25;;;20.40;99.90;;;;;;4974788;28;20428;-75
2021/06/23 08:33:38;;;;;;;0.40;0.20;;;20.50;99.90;;;;;;4973942;28;20405;-75
2021/06/23 08:36:05;;;;;;;0.40;0.20;;;20.50;99.90;;;;;;4974798;28;20396;-74
2021/06/23 08:38:31;;;;;;;0.40;0.20;;;20.60;99.90;;;;;;4974111;28;20476;-76
2021/06/23 08:40:57;;;;;;;0.40;0.20;;;20.50;99.90;;;;;;4974629;28;20555;-74
2021/06/23 08:43:22;;;;;;;0.40;0.20;;;20.30;99.90;;;;;;4973580;28;20916;-76
2021/06/23 08:45:48;;;;;;;0.40;0.30;;;20.30;99.90;;;;;;4974722;28;20880;-75
2021/06/23 08:48:15;;;;;;;0.40;0.20;;;20.40;99.90;;;;;;4974260;28;20414;-79
2021/06/23 08:50:41;;;;;;;0.40;0.20;;;20.60;99.90;;;;;;4974267;28;20388;-74
2021/06/23 08:53:08;;;;;;;0.40;0.20;;;20.70;99.90;;;;;;4974560;28;20398;-77
2021/06/23 08:55:34;;;;;;;0.40;0.20;;;20.80;99.90;;;;;;4973667;28;20396;-76
2021/06/23 08:58:00;;;;;;;0.40;0.20;;;20.90;99.90;;;;;;4974295;28;20396;-77
2021/06/23 09:00:26;;;;;;;0.40;0.20;;;21.20;99.90;;;;;;4973326;28;20455;-76
2021/06/23 09:02:58;;;;;;;0.40;0.30;;;21.00;99.90;;;;;;4973929;28;20810;-77
2021/06/23 09:05:23;;;;;;;0.40;0.30;;;21.00;99.90;;;;;;4973650;28;20380;-76
2021/06/23 09:08:00;;;;;;;0.40;0.20;;;21.00;99.90;;;;;;4956714;28;20909;-76
2021/06/23 09:10:26;;;;;;;0.40;0.30;;;20.90;99.90;;;;;;4973287;28;20400;-76
2021/06/23 09:13:03;;;;;;;0.40;0.30;;;21.30;99.90;;;;;;4989335;28;20479;-75
2021/06/23 09:15:43;;;;;;;0.40;0.30;;;21.60;99.90;;;;;;4953640;28;20429;-76
2021/06/23 09:18:13;;;;;;;0.40;0.30;;;21.60;99.90;;;;;;4965533;28;20491;-75
2021/06/23 09:20:40;;;;;;;0.40;0.20;;;21.60;99.90;;;;;;4972782;28;20430;-76
2021/06/23 09:23:06;;;;;;;0.40;0.20;;;21.30;99.90;;;;;;4974208;28;20388;-75
2021/06/23 09:25:34;;;;;;;0.40;0.28;;;21.30;99.90;;;;;;4972867;28;20415;-75
2021/06/23 09:28:04;;;;;;;0.40;0.30;;;21.40;99.90;;;;;;4973864;28;20395;-76
2021/06/23 09:30:37;;;;;;;0.40;0.30;;;21.30;99.90;;;;;;4972789;28;20765;-74
2021/06/23 09:33:22;;;;;;;0.45;0.32;;;21.60;99.90;;;;;;4974029;28;20447;-74
2021/06/23 09:35:59;;;;;;;0.40;0.20;;;21.40;99.90;;;;;;4973552;28;20512;-76
2021/06/23 09:38:47;;;;;;;0.40;0.30;;;21.30;99.90;;;;;;4972821;28;20439;-76
2021/06/23 09:41:21;;;;;;;0.40;0.20;;;21.40;99.90;;;;;;4973406;28;20487;-76
2021/06/23 09:43:49;;;;;;;0.40;0.20;;;21.80;99.90;;;;;;4972953;28;20498;-74
2021/06/23 09:46:22;;;;;;;0.40;0.20;;;21.60;99.90;;;;;;4973459;28;20400;-76
2021/06/23 09:48:50;;;;;;;0.40;0.20;;;21.60;99.90;;;;;;4973219;28;20421;-76
2021/06/23 09:51:21;;;;;;;0.40;0.20;;;21.60;99.90;;;;;;4973548;28;20395;-76
2021/06/23 09:53:48;;;;;;;0.40;0.30;;;21.20;99.90;;;;;;4973597;28;20408;-76
2021/06/23 09:56:25;;;;;;;0.40;0.30;;;21.30;99.90;;;;;;4973053;28;20408;-77
2021/06/23 09:58:54;;;;;;;0.40;0.20;;;21.30;99.90;;;;;;4973381;28;20393;-77
2021/06/23 10:01:20;;;;;;;0.40;0.20;;;21.20;99.90;;;;;;4972916;28;20800;-78
2021/06/23 10:04:04;;;;;;;0.40;0.30;;;21.40;99.90;;;;;;4972989;28;20399;-77
2021/06/23 10:06:43;;;;;;;0.40;0.30;;;21.70;99.90;;;;;;4954837;28;20873;-76
2021/06/23 10:09:24;;;;;;;0.40;0.30;;;21.90;99.90;;;;;;4972861;28;20408;-76
2021/06/23 10:11:55;;;;;;;0.40;0.20;;;22.30;99.90;;;;;;4979658;28;20403;-75
2021/06/23 10:14:22;;;;;;;0.40;0.20;;;22.60;99.90;;;;;;4985726;28;20455;-79
2021/06/23 10:16:51;;;;;;;0.40;0.20;;;22.40;99.90;;;;;;4972692;28;20420;-76
2021/06/23 10:19:17;;;;;;;0.40;0.30;;;22.70;99.90;;;;;;4972470;28;20966;-76
2021/06/23 10:21:44;;;;;;;0.40;0.30;;;22.70;99.90;;;;;;4971235;28;20424;-76
2021/06/23 10:24:12;;;;;;;0.40;0.20;;;22.20;99.90;;;;;;4972958;28;20770;-76
2021/06/23 10:26:46;;;;;;;0.40;0.20;;;22.30;99.90;;;;;;4971751;28;20471;-76
2021/06/23 10:29:14;;;;;;;0.40;0.30;;;22.40;99.90;;;;;;4972790;28;20404;-75
2021/06/23 10:31:41;;;;;;;0.40;0.20;;;22.40;99.90;;;;;;4972044;28;20393;-76
2021/06/23 10:34:08;;;;;;;0.40;0.20;;;22.10;99.90;;;;;;4972577;28;20967;-76
2021/06/23 10:36:34;;;;;;;0.40;0.30;;;22.20;99.90;;;;;;4971587;28;20757;-75
2021/06/23 10:39:04;;;;;;;0.40;0.30;;;22.20;99.90;;;;;;4972585;28;20467;-76
2021/06/23 10:41:35;;;;;;;0.40;0.30;;;21.70;99.90;;;;;;4971434;28;20498;-75
2021/06/23 10:44:21;;;;;;;0.40;0.30;;;21.90;99.90;;;;;;4972422;28;20463;-77
2021/06/23 10:46:49;;;;;;;0.40;0.30;;;22.10;99.90;;;;;;4971742;28;20416;-75
2021/06/23 10:49:18;;;;;;;0.40;0.30;;;22.10;99.90;;;;;;4972012;28;20424;-73
2021/06/23 10:51:47;;;;;;;0.40;0.30;;;22.10;99.90;;;;;;4970545;28;21023;-74
2021/06/23 10:54:35;;;;;;;0.40;0.30;;;22.00;99.90;;;;;;4972431;28;20385;-74
2021/06/23 10:57:00;;;;;;;0.40;0.20;;;21.80;99.90;;;;;;4972151;28;20499;-73
2021/06/23 10:59:33;;;;;;;0.40;0.30;;;22.20;99.90;;;;;;4971589;28;20960;-75
2021/06/23 11:02:09;;;;;;;0.40;0.20;;;22.00;99.90;;;;;;4971895;28;20458;-74
2021/06/23 11:05:03;;;;;;;0.40;0.20;;;22.20;99.90;;;;;;4970994;28;20880;-74
2021/06/23 11:07:41;;;;;;;0.40;0.20;;;22.20;99.90;;;;;;4971125;28;20441;-74
2021/06/23 11:10:13;;;;;;;0.40;0.30;;;22.60;99.90;;;;;;4972031;28;20404;-73
2021/06/23 11:12:48;;;;;;;0.40;0.20;;;22.70;99.90;;;;;;4979872;28;20430;-74
2021/06/23 11:15:25;;;;;;;0.40;0.30;;;23.20;99.90;;;;;;4976986;28;20444;-73
2021/06/23 11:17:54;;;;;;;0.40;0.20;;;23.30;99.90;;;;;;4973221;28;20908;-74
2021/06/23 11:20:19;;;;;;;0.40;0.30;;;22.90;99.90;;;;;;4971710;28;20388;-73
2021/06/23 11:22:56;;;;;;;0.40;0.20;;;22.80;99.90;;;;;;4980979;28;20894;-73
2021/06/23 11:25:31;;;;;;;0.40;0.20;;;22.80;99.90;;;;;;4977781;28;20404;-73
2021/06/23 11:28:10;;;;;;;0.40;0.30;;;22.50;99.90;;;;;;4971760;28;20749;-74
2021/06/23 11:30:51;;;;;;;0.40;0.30;;;22.40;99.90;;;;;;4971042;28;20395;-73
2021/06/23 11:33:28;;;;;;;0.40;0.20;;;22.40;99.90;;;;;;4986446;28;20401;-76
2021/06/23 11:35:59;;;;;;;0.40;0.20;;;22.50;99.90;;;;;;4978761;28;20401;-76
2021/06/23 11:38:25;;;;;;;0.40;0.20;;;22.60;99.90;;;;;;4971003;28;20507;-79
2021/06/23 11:40:53;;;;;;;0.40;0.20;;;22.70;99.90;;;;;;4971144;28;20531;-76
2021/06/23 11:43:18;;;;;;;0.40;0.20;;;22.60;99.90;;;;;;4971518;28;20416;-75
2021/06/23 11:45:48;;;;;;;0.40;0.20;;;22.80;99.90;;;;;;4953503;28;20415;-76
2021/06/23 11:48:16;;;;;;;0.40;0.30;;;22.50;99.90;;;;;;4954169;28;20396;-76
2021/06/23 11:50:44;;;;;;;0.40;0.30;;;22.30;99.90;;;;;;4970439;28;20404;-75
2021/06/23 11:53:13;;;;;;;0.40;0.30;;;22.80;99.90;;;;;;4954138;28;20906;-76
2021/06/23 11:55:40;;;;;;;0.40;0.22;;;23.50;99.90;;;;;;4971123;28;20384;-77
2021/06/23 11:58:06;;;;;;;0.40;0.20;;;24.30;99.90;;;;;;4970998;28;20404;-77
2021/06/23 12:00:34;;;;;;;0.40;0.20;;;23.70;99.90;;;;;;4953346;28;20400;-77
2021/06/23 12:03:00;;;;;;;0.40;0.20;;;23.50;99.90;;;;;;4972599;28;20906;-78
2021/06/23 12:05:27;;;;;;;0.40;0.30;;;23.70;99.90;;;;;;4974201;28;20407;-79
2021/06/23 12:07:54;;;;;;;0.40;0.30;;;23.70;99.90;;;;;;4975220;28;20408;-77
2021/06/23 12:10:21;;;;;;;0.40;0.30;;;23.90;99.90;;;;;;4975500;28;20388;-76
2021/06/23 12:12:48;;;;;;;0.40;0.20;;;23.50;99.90;;;;;;4988531;28;20421;-77
2021/06/23 12:15:17;;;;;;;0.40;0.30;;;23.30;99.90;;;;;;4994594;28;20417;-76
2021/06/23 12:17:44;;;;;;;0.40;0.20;;;23.20;99.90;;;;;;4993914;28;20471;-76
2021/06/23 12:20:10;;;;;;;0.40;0.30;;;24.30;99.90;;;;;;4994447;28;20873;-76
2021/06/23 12:22:38;;;;;;;0.40;0.20;;;23.90;99.90;;;;;;4965161;28;20423;-77
2021/06/23 12:25:08;;;;;;;0.40;0.22;;;23.70;99.90;;;;;;4975253;28;20459;-77
2021/06/23 12:27:34;;;;;;;0.40;0.22;;;23.70;99.90;;;;;;4971151;28;20849;-75
2021/06/23 12:30:00;;;;;;;0.40;0.30;;;23.40;99.90;;;;;;4975047;28;20397;-76
2021/06/23 12:32:26;;;;;;;0.40;0.20;;;24.00;99.90;;;;;;4957340;28;20462;-77
2021/06/23 12:34:52;;;;;;;0.40;0.30;;;24.80;99.90;;;;;;4974011;28;20431;-77
2021/06/23 12:37:18;;;;;;;0.40;0.30;;;25.40;99.90;;;;;;4974914;28;20397;-78
2021/06/23 12:39:44;;;;;;;0.40;0.20;;;24.90;99.90;;;;;;4956828;28;20397;-77
2021/06/23 12:42:10;;;;;;;0.40;0.30;;;24.50;99.90;;;;;;4974932;28;20419;-76
2021/06/23 12:44:36;;;;;;;0.40;0.30;;;24.10;99.90;;;;;;4973979;28;20892;-79
2021/06/23 12:47:03;;;;;;;0.40;0.20;;;23.80;99.90;;;;;;4974518;28;20404;-76
2021/06/23 12:49:31;;;;;;;0.40;0.20;;;24.00;99.90;;;;;;4973974;28;20800;-77
2021/06/23 12:51:58;;;;;;;0.40;0.20;;;23.80;99.90;;;;;;4957165;28;20889;-77
2021/06/23 12:54:27;;;;;;;0.50;0.30;;;23.30;99.90;;;;;;4974159;28;20400;-76
2021/06/23 12:56:52;;;;;;;0.40;0.20;;;23.30;99.90;;;;;;4973338;28;21218;-77
2021/06/23 12:59:18;;;;;;;0.40;0.20;;;23.40;99.90;;;;;;4956664;28;20408;-77
2021/06/23 13:01:44;;;;;;;0.40;0.30;;;23.40;99.90;;;;;;4973524;28;20447;-76
2021/06/23 13:04:10;;;;;;;0.40;0.30;;;23.60;99.90;;;;;;4974228;28;20872;-76
2021/06/23 13:06:37;;;;;;;0.40;0.23;;;24.20;99.90;;;;;;4973612;28;20399;-76
2021/06/23 13:09:07;;;;;;;0.40;0.30;;;24.10;99.90;;;;;;4973926;28;20888;-74